Time;durP1;ratioP1;P1;durP2;ratioP2;P2;SDS_P1;SDS_P2;PMS_P1;PMS_P2;Temp;Humidity;BMP_temperature;BMP_pressure;BME280_temperature;BME280_humidity;BME280_pressure;Samples;Min_cycle;Max_cycle;Signal;HPM_P1;HPM_P2
2022/05/15 15:26:57;;;;;;;1.27;0.75;;;22.50;71.20;;;;;;5166234;27;20366;-88
2022/05/15 15:29:23;;;;;;;1.17;0.70;;;22.40;73.10;;;;;;5077180;28;20036;-83
2022/05/15 15:31:50;;;;;;;0.50;0.38;;;22.30;73.50;;;;;;5077199;28;20040;-81
2022/05/15 15:34:17;;;;;;;1.20;0.30;;;22.30;72.40;;;;;;5093314;28;20040;-81
2022/05/15 15:38:14;;;;;;;0.17;0.10;;;22.40;72.00;;;;;;5076993;28;20046;-80
2022/05/15 15:39:35;;;;;;;0.10;0.10;;;22.30;73.00;;;;;;5135708;28;20081;-82
2022/05/15 15:42:03;;;;;;;0.60;0.25;;;22.40;72.00;;;;;;5117544;28;20043;-82
2022/05/15 15:44:30;;;;;;;0.03;0.03;;;22.30;72.00;;;;;;5101791;28;20047;-82
2022/05/15 15:46:57;;;;;;;5.45;0.40;;;22.30;72.80;;;;;;5076586;28;20049;-83
2022/05/15 15:49:23;;;;;;;0.80;0.35;;;22.30;70.50;;;;;;5072828;28;20032;-84
2022/05/15 15:51:55;;;;;;;2.08;0.90;;;22.20;71.10;;;;;;5073266;28;20123;-84
2022/05/15 15:54:22;;;;;;;1.50;0.60;;;22.10;71.10;;;;;;5091936;28;20040;-83
2022/05/15 15:56:48;;;;;;;0.30;0.30;;;22.10;71.80;;;;;;5069138;28;20029;-85
2022/05/15 15:59:18;;;;;;;0.20;0.20;;;22.10;72.70;;;;;;5052472;28;20037;-83
2022/05/15 16:01:46;;;;;;;0.75;0.50;;;21.90;71.70;;;;;;5085725;28;20052;-85
2022/05/15 16:04:14;;;;;;;0.52;0.32;;;21.90;73.00;;;;;;5069544;28;20045;-83
2022/05/15 16:06:42;;;;;;;0.47;0.40;;;21.90;72.10;;;;;;5068933;28;20087;-85
2022/05/15 16:09:09;;;;;;;0.70;0.40;;;21.90;72.40;;;;;;5085835;28;20049;-84
2022/05/15 16:11:43;;;;;;;1.27;0.60;;;21.90;72.60;;;;;;5036422;28;20041;-84
2022/05/15 16:14:12;;;;;;;0.65;0.32;;;21.90;72.40;;;;;;5069371;28;20573;-86
2022/05/15 16:16:38;;;;;;;1.90;0.98;;;21.80;72.20;;;;;;5069204;28;20151;-83
2022/05/15 16:19:05;;;;;;;4.03;1.10;;;21.80;73.50;;;;;;5069240;28;20076;-84
2022/05/15 16:21:58;;;;;;;1.17;0.77;;;21.90;71.90;;;;;;5052348;28;20816;-85
2022/05/15 16:24:30;;;;;;;0.63;0.43;;;21.80;71.10;;;;;;5068582;28;20140;-86
2022/05/15 16:27:03;;;;;;;0.85;0.40;;;21.80;71.40;;;;;;5049277;28;20453;-85
2022/05/15 16:29:32;;;;;;;0.15;0.15;;;21.80;72.20;;;;;;5065636;28;20045;-83
2022/05/15 16:32:00;;;;;;;0.40;0.22;;;21.80;72.80;;;;;;5065744;28;20059;-84
2022/05/15 16:34:27;;;;;;;4.15;0.10;;;21.70;73.30;;;;;;5081603;28;20037;-84
2022/05/15 16:36:53;;;;;;;0.20;0.17;;;21.70;73.60;;;;;;5029263;28;20463;-83
2022/05/15 16:39:20;;;;;;;0.20;0.20;;;21.60;72.70;;;;;;5054953;28;20064;-84
2022/05/15 16:41:47;;;;;;;0.40;0.25;;;21.60;72.00;;;;;;5034807;28;20391;-87
2022/05/15 16:44:13;;;;;;;0.15;0.10;;;21.60;73.30;;;;;;5035724;28;20037;-86
2022/05/15 16:46:40;;;;;;;0.10;0.10;;;21.60;71.60;;;;;;5050020;28;20289;-84
2022/05/15 16:49:07;;;;;;;0.10;0.10;;;21.50;72.80;;;;;;5039767;28;20072;-86
2022/05/15 16:51:37;;;;;;;0.90;0.20;;;21.40;71.80;;;;;;5039445;28;20478;-85
2022/05/15 16:54:04;;;;;;;0.10;0.10;;;21.40;72.40;;;;;;5039289;28;20519;-84
2022/05/15 16:56:31;;;;;;;0.47;0.30;;;21.40;74.40;;;;;;5042641;28;20357;-84
2022/05/15 16:58:58;;;;;;;0.10;0.10;;;21.30;74.10;;;;;;5004670;28;20068;-87
2022/05/15 17:01:27;;;;;;;0.65;0.35;;;21.30;74.40;;;;;;5004590;28;20083;-84
2022/05/15 17:03:54;;;;;;;1.45;0.40;;;21.30;74.50;;;;;;5014483;28;20553;-84
2022/05/15 17:06:25;;;;;;;1.27;0.55;;;21.30;76.40;;;;;;5038666;28;20045;-87
2022/05/15 17:08:52;;;;;;;0.30;0.20;;;21.20;77.70;;;;;;5055508;28;20730;-86
2022/05/15 17:11:20;;;;;;;0.52;0.30;;;21.10;78.40;;;;;;5039743;28;20124;-84
2022/05/15 17:13:50;;;;;;;0.85;0.40;;;21.10;80.30;;;;;;5039652;28;20033;-87
2022/05/15 17:16:17;;;;;;;0.00;0.00;;;21.10;80.10;;;;;;5039654;28;20131;-86
2022/05/15 17:18:45;;;;;;;0.35;0.22;;;21.00;80.50;;;;;;5034936;28;20120;-86
2022/05/15 17:21:12;;;;;;;0.20;0.20;;;20.90;81.60;;;;;;5020468;28;20055;-83
2022/05/15 17:23:39;;;;;;;0.98;0.30;;;20.90;82.60;;;;;;5039190;28;20041;-84
2022/05/15 17:26:06;;;;;;;0.38;0.30;;;20.80;82.90;;;;;;5035771;28;20044;-84
2022/05/15 17:34:12;;;;;;;1.00;0.50;;;20.60;86.00;;;;;;5071628;28;20047;-83
2022/05/15 17:36:43;;;;;;;0.47;0.30;;;20.60;89.30;;;;;;5059464;28;20409;-84
2022/05/15 17:39:10;;;;;;;0.20;0.20;;;20.40;92.60;;;;;;5074978;28;20067;-86
2022/05/15 17:41:38;;;;;;;0.70;0.25;;;20.30;94.80;;;;;;5072056;28;20036;-84
2022/05/15 17:44:05;;;;;;;0.15;0.15;;;20.20;96.30;;;;;;5058952;28;20052;-85
2022/05/15 17:46:32;;;;;;;0.73;0.32;;;20.10;96.30;;;;;;5064043;28;20964;-88
2022/05/15 17:48:58;;;;;;;0.45;0.20;;;20.00;99.00;;;;;;5057533;28;20115;-83
2022/05/15 17:51:25;;;;;;;1.90;0.75;;;19.90;99.40;;;;;;5034365;28;20575;-87
2022/05/15 17:53:52;;;;;;;0.43;0.22;;;19.70;99.90;;;;;;5057998;28;20040;-84
2022/05/15 17:56:19;;;;;;;0.10;0.10;;;19.60;99.90;;;;;;5058053;28;20493;-88
2022/05/15 17:58:46;;;;;;;0.25;0.15;;;19.40;99.90;;;;;;5058155;28;20044;-84
2022/05/15 18:01:13;;;;;;;0.38;0.38;;;19.30;99.90;;;;;;5058567;28;20042;-88
2022/05/15 18:03:41;;;;;;;0.47;0.30;;;19.20;99.90;;;;;;5058384;28;20098;-87
2022/05/15 18:06:08;;;;;;;0.52;0.40;;;19.10;99.90;;;;;;5049943;28;20494;-88
2022/05/15 18:08:44;;;;;;;0.63;0.40;;;19.00;99.90;;;;;;5059891;28;20047;-87
2022/05/15 18:11:11;;;;;;;0.43;0.38;;;18.80;99.90;;;;;;5058017;28;20044;-84
2022/05/15 18:13:38;;;;;;;0.47;0.30;;;18.70;99.90;;;;;;5042642;28;20587;-88
2022/05/15 18:16:05;;;;;;;0.43;0.32;;;18.60;99.90;;;;;;5061778;28;20047;-84
2022/05/15 18:18:32;;;;;;;1.02;0.75;;;18.50;99.90;;;;;;5070307;28;20048;-84
2022/05/15 18:21:00;;;;;;;1.10;0.52;;;18.40;99.90;;;;;;5038611;28;20120;-87
2022/05/15 18:23:27;;;;;;;0.45;0.25;;;18.30;99.90;;;;;;5056745;28;20098;-84
2022/05/15 18:25:54;;;;;;;0.43;0.28;;;18.10;99.90;;;;;;5073047;28;20062;-87
2022/05/15 18:28:21;;;;;;;0.40;0.30;;;18.10;99.90;;;;;;5074802;28;20036;-88
2022/05/15 18:30:48;;;;;;;0.88;0.40;;;18.00;99.90;;;;;;5074348;28;20059;-84
2022/05/15 18:33:16;;;;;;;0.05;0.05;;;17.90;99.90;;;;;;5057081;28;20101;-87
2022/05/15 18:35:42;;;;;;;0.70;0.30;;;17.80;99.90;;;;;;5073718;28;20562;-87
2022/05/15 18:38:09;;;;;;;0.20;0.20;;;17.70;99.90;;;;;;5074297;28;20040;-84
2022/05/15 18:40:36;;;;;;;0.85;0.43;;;17.60;99.90;;;;;;5063242;28;20029;-87
2022/05/15 18:43:08;;;;;;;0.40;0.22;;;17.50;99.90;;;;;;5064417;28;20040;-85
2022/05/15 18:45:35;;;;;;;0.22;0.20;;;17.40;99.90;;;;;;5073613;28;20571;-84
2022/05/15 18:48:02;;;;;;;0.43;0.35;;;17.30;99.90;;;;;;5071147;28;20047;-85
2022/05/15 18:56:03;;;;;;;0.38;0.20;;;17.00;99.90;;;;;;5087614;28;20044;-87
2022/05/15 18:58:29;;;;;;;0.40;0.40;;;17.00;99.90;;;;;;5057294;28;20047;-86
2022/05/15 19:00:56;;;;;;;0.68;0.50;;;16.90;99.90;;;;;;5039547;28;20036;-85
2022/05/15 19:03:23;;;;;;;0.30;0.30;;;16.80;99.90;;;;;;5064330;28;20044;-85
2022/05/15 19:05:51;;;;;;;0.25;0.20;;;16.70;99.90;;;;;;5072917;28;20044;-84
2022/05/15 19:08:18;;;;;;;1.67;0.50;;;16.60;99.90;;;;;;5073422;28;20039;-84
2022/05/15 19:10:45;;;;;;;0.65;0.30;;;16.60;99.90;;;;;;5040473;28;20404;-85
2022/05/15 19:13:12;;;;;;;0.65;0.28;;;16.40;99.90;;;;;;5070222;28;20052;-85
2022/05/15 19:15:39;;;;;;;0.30;0.30;;;16.40;99.90;;;;;;5053117;28;20049;-83
2022/05/15 19:18:06;;;;;;;0.20;0.20;;;16.30;99.90;;;;;;5068761;28;20076;-84
2022/05/15 19:20:33;;;;;;;0.20;0.20;;;16.20;99.90;;;;;;5040066;28;20095;-85
2022/05/15 19:23:00;;;;;;;1.48;0.40;;;16.10;99.90;;;;;;5036575;28;20037;-85
2022/05/15 19:25:27;;;;;;;0.10;0.10;;;16.00;99.90;;;;;;5040472;28;20057;-84
2022/05/15 19:27:54;;;;;;;0.82;0.20;;;16.00;99.90;;;;;;5052921;28;20033;-87
2022/05/15 19:30:21;;;;;;;0.90;0.50;;;15.90;99.90;;;;;;5049353;28;20435;-84
2022/05/15 19:32:49;;;;;;;0.55;0.40;;;15.80;99.90;;;;;;5072167;28;20500;-84
2022/05/15 19:35:19;;;;;;;0.32;0.28;;;15.80;99.90;;;;;;5073900;28;20048;-84
2022/05/15 19:37:45;;;;;;;0.22;0.20;;;15.70;99.90;;;;;;5072324;28;20497;-84
2022/05/15 19:40:12;;;;;;;1.17;0.35;;;15.60;99.90;;;;;;5040262;28;20083;-84
2022/05/15 19:42:39;;;;;;;0.88;0.30;;;15.50;99.90;;;;;;5036809;28;20049;-84
2022/05/15 19:45:07;;;;;;;0.63;0.17;;;15.50;99.90;;;;;;5027013;28;20049;-84
2022/05/15 19:47:34;;;;;;;0.60;0.40;;;15.40;99.90;;;;;;5070687;28;20051;-85
2022/05/15 19:50:02;;;;;;;0.20;0.20;;;15.40;99.90;;;;;;5036433;28;20429;-83
2022/05/15 19:52:29;;;;;;;0.85;0.32;;;15.30;99.90;;;;;;5042399;28;20535;-84
2022/05/15 19:54:56;;;;;;;0.30;0.20;;;15.20;99.90;;;;;;5056229;28;20131;-84
2022/05/15 19:57:23;;;;;;;0.52;0.40;;;15.10;99.90;;;;;;5068854;28;20501;-84
2022/05/15 19:59:50;;;;;;;0.93;0.47;;;15.00;99.90;;;;;;5019891;28;20071;-84
2022/05/15 20:02:17;;;;;;;1.35;0.40;;;15.00;99.90;;;;;;5039744;28;20040;-84
2022/05/15 20:13:01;;;;;;;;;;;14.70;99.90;;;;;;5065260;28;20119;-86
2022/05/15 20:15:28;;;;;;;0.25;0.25;;;14.70;99.90;;;;;;5072831;28;19924;-86
2022/05/15 20:17:55;;;;;;;0.52;0.40;;;14.60;99.90;;;;;;5085349;28;20060;-86
2022/05/15 20:20:22;;;;;;;0.45;0.32;;;14.50;99.90;;;;;;5043303;28;20515;-85
2022/05/15 20:22:48;;;;;;;1.17;0.73;;;14.50;99.90;;;;;;5075079;28;20048;-85
2022/05/15 20:25:16;;;;;;;0.05;0.05;;;14.50;99.90;;;;;;5059012;28;20110;-85
2022/05/15 20:27:44;;;;;;;0.15;0.15;;;14.40;99.90;;;;;;5075838;28;20132;-85
2022/05/15 20:30:11;;;;;;;0.70;0.52;;;14.40;99.90;;;;;;5075396;28;20052;-85
2022/05/15 20:32:38;;;;;;;0.40;0.30;;;14.30;99.90;;;;;;5039722;28;20091;-84
2022/05/15 20:35:05;;;;;;;2.47;1.15;;;14.20;99.90;;;;;;5044695;28;20177;-86
2022/05/15 20:37:32;;;;;;;0.28;0.15;;;14.20;99.90;;;;;;5071891;28;20505;-85
2022/05/15 20:39:59;;;;;;;0.50;0.50;;;14.20;99.90;;;;;;5039512;28;20037;-85
2022/05/15 20:42:26;;;;;;;0.15;0.15;;;14.10;99.90;;;;;;5052119;28;20072;-85
2022/05/15 20:44:52;;;;;;;1.35;0.50;;;14.10;99.90;;;;;;5075116;28;20081;-85
2022/05/15 20:47:19;;;;;;;0.43;0.43;;;14.00;99.90;;;;;;5025985;28;20041;-84
2022/05/15 20:49:46;;;;;;;0.43;0.32;;;14.00;99.90;;;;;;5026279;28;20094;-85
2022/05/15 20:52:14;;;;;;;0.28;0.28;;;14.00;99.90;;;;;;5058701;28;20040;-85
2022/05/15 20:54:41;;;;;;;0.77;0.43;;;13.90;99.90;;;;;;5059298;28;20127;-85
2022/05/15 20:57:08;;;;;;;1.55;0.45;;;13.90;99.90;;;;;;5058806;28;20041;-85
2022/05/15 20:59:38;;;;;;;0.75;0.50;;;13.80;99.90;;;;;;5071200;28;20037;-85
2022/05/15 21:02:06;;;;;;;0.88;0.50;;;13.80;99.90;;;;;;5055367;28;20049;-84
2022/05/15 21:04:33;;;;;;;0.10;0.10;;;13.80;99.90;;;;;;5038942;28;20120;-84
2022/05/15 21:07:00;;;;;;;0.40;0.35;;;13.70;99.90;;;;;;5038792;28;20517;-84
2022/05/15 21:09:27;;;;;;;1.23;0.60;;;13.70;99.90;;;;;;5039220;28;20041;-86
2022/05/15 21:11:53;;;;;;;0.30;0.30;;;13.70;99.90;;;;;;5039042;28;20037;-85
2022/05/15 21:14:20;;;;;;;1.23;0.50;;;13.70;99.90;;;;;;5038727;28;20481;-86
2022/05/15 21:16:47;;;;;;;0.98;0.65;;;13.60;99.90;;;;;;5039256;28;20041;-88
2022/05/15 21:19:14;;;;;;;0.30;0.22;;;13.60;99.90;;;;;;5062441;28;20086;-85
2022/05/15 21:21:40;;;;;;;0.45;0.30;;;13.60;99.90;;;;;;5075851;28;20345;-90
2022/05/15 21:24:07;;;;;;;0.65;0.47;;;13.40;99.90;;;;;;5059307;28;20052;-89
2022/05/15 21:26:34;;;;;;;0.28;0.28;;;13.40;99.90;;;;;;5059084;28;20110;-85
2022/05/15 21:29:01;;;;;;;0.28;0.28;;;13.40;99.90;;;;;;5075366;28;20045;-84
2022/05/15 21:31:28;;;;;;;0.63;0.47;;;13.40;99.90;;;;;;5058851;28;20501;-85
2022/05/15 21:33:54;;;;;;;0.88;0.50;;;13.40;99.90;;;;;;5058178;28;20036;-87
2022/05/15 21:36:21;;;;;;;1.08;0.63;;;13.30;99.90;;;;;;5058450;28;20431;-85
2022/05/15 21:44:19;;;;;;;0.40;0.30;;;13.20;99.90;;;;;;5071399;28;20494;-86
2022/05/15 21:46:49;;;;;;;0.28;0.25;;;13.20;99.90;;;;;;5054628;28;20394;-86
2022/05/15 21:49:16;;;;;;;0.43;0.43;;;13.20;99.90;;;;;;5070662;28;20402;-85
2022/05/15 21:51:44;;;;;;;0.30;0.30;;;13.10;99.90;;;;;;5054561;28;20071;-85
2022/05/15 21:54:11;;;;;;;0.10;0.10;;;13.10;99.90;;;;;;5070883;28;20041;-86
2022/05/15 21:56:38;;;;;;;0.80;0.55;;;13.00;99.90;;;;;;5104119;28;20505;-84
2022/05/15 22:01:50;;;;;;;0.73;0.63;;;13.00;99.90;;;;;;5042902;28;20049;-85
2022/05/15 22:04:18;;;;;;;0.52;0.40;;;13.00;99.90;;;;;;5038376;28;20048;-85
2022/05/15 22:06:44;;;;;;;0.20;0.20;;;13.00;99.90;;;;;;5087463;28;20044;-86
2022/05/15 22:09:11;;;;;;;0.38;0.32;;;13.00;99.90;;;;;;5054164;28;20041;-85
2022/05/15 22:11:38;;;;;;;0.50;0.40;;;12.90;99.90;;;;;;5038004;28;20049;-86
2022/05/15 22:14:04;;;;;;;0.63;0.38;;;12.90;99.90;;;;;;5037509;28;20047;-85
2022/05/15 22:16:31;;;;;;;0.30;0.30;;;12.90;99.90;;;;;;5038099;28;20051;-86
2022/05/15 22:18:58;;;;;;;1.00;0.30;;;12.90;99.90;;;;;;5054325;28;20041;-85
2022/05/15 22:21:28;;;;;;;0.20;0.20;;;12.80;99.90;;;;;;5038569;28;20477;-85
2022/05/15 22:23:55;;;;;;;0.73;0.45;;;12.80;99.90;;;;;;5037674;28;20456;-85
2022/05/15 22:26:26;;;;;;;0.32;0.32;;;12.80;99.90;;;;;;5037210;28;20056;-85
2022/05/15 22:28:53;;;;;;;0.25;0.22;;;12.70;99.90;;;;;;5053853;28;20033;-85
2022/05/15 22:31:21;;;;;;;0.60;0.20;;;12.70;99.90;;;;;;5037432;28;20044;-85
2022/05/15 22:33:48;;;;;;;0.40;0.30;;;12.70;99.90;;;;;;5053767;28;20490;-85
2022/05/15 22:36:15;;;;;;;0.38;0.30;;;12.60;99.90;;;;;;5053169;28;20051;-84
2022/05/15 22:38:41;;;;;;;0.22;0.20;;;12.60;99.90;;;;;;5037628;28;20263;-85
2022/05/15 22:41:08;;;;;;;0.60;0.40;;;12.50;99.90;;;;;;5037317;28;20040;-85
2022/05/15 22:43:35;;;;;;;0.30;0.30;;;12.50;99.90;;;;;;5037553;28;20551;-85
2022/05/15 22:46:03;;;;;;;0.30;0.30;;;12.50;99.90;;;;;;5037436;28;20409;-86
2022/05/15 22:48:29;;;;;;;0.65;0.30;;;12.40;99.90;;;;;;5053673;28;20402;-85
2022/05/15 22:50:56;;;;;;;0.30;0.30;;;12.40;99.90;;;;;;5054066;28;20044;-85
2022/05/15 22:53:23;;;;;;;0.28;0.28;;;12.40;99.90;;;;;;5020649;28;20087;-85
2022/05/15 22:55:50;;;;;;;0.10;0.10;;;12.40;99.90;;;;;;5053351;28;20742;-85
2022/05/15 22:58:17;;;;;;;0.28;0.25;;;12.30;99.90;;;;;;5020976;28;20040;-85
2022/05/15 23:00:45;;;;;;;0.32;0.30;;;12.30;99.90;;;;;;5045883;28;20051;-84
2022/05/15 23:03:12;;;;;;;0.70;0.52;;;12.30;99.90;;;;;;5073193;28;20131;-85
2022/05/15 23:08:24;;;;;;;0.55;0.20;;;12.20;99.90;;;;;;5089273;28;20052;-85
2022/05/15 23:10:52;;;;;;;0.47;0.35;;;12.20;99.90;;;;;;5056755;28;20070;-86
2022/05/15 23:13:19;;;;;;;0.25;0.15;;;12.10;99.90;;;;;;5056402;28;20123;-86
2022/05/15 23:15:46;;;;;;;0.10;0.10;;;12.10;99.90;;;;;;5089763;28;20047;-86
2022/05/15 23:18:13;;;;;;;0.20;0.20;;;12.10;99.90;;;;;;5056940;28;20047;-86
2022/05/15 23:20:40;;;;;;;1.38;0.57;;;12.10;99.90;;;;;;5073179;28;20044;-86
2022/05/15 23:23:07;;;;;;;0.60;0.52;;;12.10;99.90;;;;;;5073414;28;20508;-85
2022/05/15 23:25:34;;;;;;;1.02;0.70;;;12.10;99.90;;;;;;5072602;28;20053;-86
2022/05/15 23:28:03;;;;;;;0.52;0.40;;;12.00;99.90;;;;;;5040694;28;20041;-86
2022/05/15 23:30:31;;;;;;;0.25;0.25;;;12.10;99.90;;;;;;5068616;28;21029;-86
2022/05/15 23:32:59;;;;;;;0.20;0.20;;;12.00;99.90;;;;;;5053455;28;20048;-86
2022/05/15 23:35:27;;;;;;;0.30;0.30;;;12.10;99.90;;;;;;5069261;28;20044;-86
2022/05/15 23:37:53;;;;;;;0.40;0.22;;;12.10;99.90;;;;;;5069229;28;20041;-86
2022/05/15 23:40:21;;;;;;;0.80;0.20;;;12.00;99.90;;;;;;5052661;28;20040;-85
2022/05/15 23:42:49;;;;;;;0.30;0.30;;;12.00;99.90;;;;;;5089121;28;20576;-85
2022/05/15 23:45:16;;;;;;;0.30;0.30;;;12.00;99.90;;;;;;5055983;28;20417;-84
2022/05/15 23:47:45;;;;;;;0.32;0.32;;;12.00;99.90;;;;;;5075103;28;20078;-85
2022/05/15 23:50:12;;;;;;;0.30;0.30;;;12.00;99.90;;;;;;5077279;28;20040;-85
2022/05/15 23:52:38;;;;;;;0.30;0.30;;;12.10;99.90;;;;;;5076614;28;20112;-85
2022/05/15 23:55:06;;;;;;;0.40;0.40;;;12.10;99.90;;;;;;5044131;28;20048;-85
2022/05/15 23:57:34;;;;;;;0.25;0.25;;;12.10;99.90;;;;;;5044004;28;20135;-84
